sensor_id;sensor_type;location;lat;lon;timestamp;temperature;humidity
15131;DHT22;7666;50.920;4.628;2024-01-27T00:00:36;4.10;99.90
15131;DHT22;7666;50.920;4.628;2024-01-27T00:03:22;4.10;99.90
15131;DHT22;7666;50.920;4.628;2024-01-27T00:06:08;4.10;99.90
15131;DHT22;7666;50.920;4.628;2024-01-27T00:08:54;4.10;99.90
15131;DHT22;7666;50.920;4.628;2024-01-27T00:11:40;4.10;99.90
15131;DHT22;7666;50.920;4.628;2024-01-27T00:14:26;4.10;99.90
15131;DHT22;7666;50.920;4.628;2024-01-27T00:17:13;4.10;99.90
15131;DHT22;7666;50.920;4.628;2024-01-27T00:19:59;4.10;99.90
15131;DHT22;7666;50.920;4.628;2024-01-27T00:22:44;4.10;99.90
15131;DHT22;7666;50.920;4.628;2024-01-27T00:25:30;4.00;99.90
15131;DHT22;7666;50.920;4.628;2024-01-27T00:28:16;3.90;99.90
15131;DHT22;7666;50.920;4.628;2024-01-27T00:31:03;4.00;99.90
15131;DHT22;7666;50.920;4.628;2024-01-27T00:33:49;4.00;99.90
15131;DHT22;7666;50.920;4.628;2024-01-27T00:36:35;4.00;99.90
15131;DHT22;7666;50.920;4.628;2024-01-27T00:39:24;4.00;99.90
15131;DHT22;7666;50.920;4.628;2024-01-27T00:42:10;3.90;99.90
15131;DHT22;7666;50.920;4.628;2024-01-27T00:44:55;3.80;99.90
15131;DHT22;7666;50.920;4.628;2024-01-27T00:47:41;3.80;99.90
15131;DHT22;7666;50.920;4.628;2024-01-27T00:50:27;3.80;99.90
15131;DHT22;7666;50.920;4.628;2024-01-27T00:53:13;3.80;99.90
15131;DHT22;7666;50.920;4.628;2024-01-27T00:55:59;3.80;99.90
15131;DHT22;7666;50.920;4.628;2024-01-27T00:58:45;3.80;99.90
15131;DHT22;7666;50.920;4.628;2024-01-27T01:01:31;3.70;99.90
15131;DHT22;7666;50.920;4.628;2024-01-27T01:04:17;3.70;99.90
15131;DHT22;7666;50.920;4.628;2024-01-27T01:07:03;3.60;99.90
15131;DHT22;7666;50.920;4.628;2024-01-27T01:09:49;3.60;99.90
15131;DHT22;7666;50.920;4.628;2024-01-27T01:12:35;3.60;99.90
15131;DHT22;7666;50.920;4.628;2024-01-27T01:15:22;3.50;99.90
15131;DHT22;7666;50.920;4.628;2024-01-27T01:18:08;3.60;99.90
15131;DHT22;7666;50.920;4.628;2024-01-27T01:20:54;3.60;99.90
15131;DHT22;7666;50.920;4.628;2024-01-27T01:23:39;3.60;99.90
15131;DHT22;7666;50.920;4.628;2024-01-27T01:26:26;3.60;99.90
15131;DHT22;7666;50.920;4.628;2024-01-27T01:29:12;3.60;99.90
15131;DHT22;7666;50.920;4.628;2024-01-27T01:31:58;3.60;99.90
15131;DHT22;7666;50.920;4.628;2024-01-27T01:34:46;3.60;99.90
15131;DHT22;7666;50.920;4.628;2024-01-27T01:37:32;3.60;99.90
15131;DHT22;7666;50.920;4.628;2024-01-27T01:40:18;3.60;99.90
15131;DHT22;7666;50.920;4.628;2024-01-27T01:43:09;3.50;99.90
15131;DHT22;7666;50.920;4.628;2024-01-27T01:45:55;3.50;99.90
15131;DHT22;7666;50.920;4.628;2024-01-27T01:48:42;3.50;99.90
15131;DHT22;7666;50.920;4.628;2024-01-27T01:51:28;3.40;99.90
15131;DHT22;7666;50.920;4.628;2024-01-27T01:54:14;3.40;99.90
15131;DHT22;7666;50.920;4.628;2024-01-27T01:57:01;3.30;99.90
15131;DHT22;7666;50.920;4.628;2024-01-27T01:59:47;3.30;99.90
15131;DHT22;7666;50.920;4.628;2024-01-27T02:02:33;3.20;99.90
15131;DHT22;7666;50.920;4.628;2024-01-27T02:05:19;3.10;99.90
15131;DHT22;7666;50.920;4.628;2024-01-27T02:08:06;3.00;99.90
15131;DHT22;7666;50.920;4.628;2024-01-27T02:10:52;3.00;99.90
15131;DHT22;7666;50.920;4.628;2024-01-27T02:13:38;3.00;99.90
15131;DHT22;7666;50.920;4.628;2024-01-27T02:16:24;3.00;99.90
15131;DHT22;7666;50.920;4.628;2024-01-27T02:19:11;3.00;99.90
15131;DHT22;7666;50.920;4.628;2024-01-27T02:21:57;3.10;99.90
15131;DHT22;7666;50.920;4.628;2024-01-27T02:24:43;3.10;99.90
15131;DHT22;7666;50.920;4.628;2024-01-27T02:27:29;3.20;99.90
15131;DHT22;7666;50.920;4.628;2024-01-27T02:30:15;3.30;99.90
15131;DHT22;7666;50.920;4.628;2024-01-27T02:33:01;3.40;99.90
15131;DHT22;7666;50.920;4.628;2024-01-27T02:35:47;3.40;99.90
15131;DHT22;7666;50.920;4.628;2024-01-27T02:38:34;3.40;99.90
15131;DHT22;7666;50.920;4.628;2024-01-27T02:41:19;3.40;99.90
15131;DHT22;7666;50.920;4.628;2024-01-27T02:44:06;3.40;99.90
15131;DHT22;7666;50.920;4.628;2024-01-27T02:46:52;3.40;99.90
15131;DHT22;7666;50.920;4.628;2024-01-27T02:49:38;3.40;99.90
15131;DHT22;7666;50.920;4.628;2024-01-27T02:52:24;3.40;99.90
15131;DHT22;7666;50.920;4.628;2024-01-27T02:55:10;3.40;99.90
15131;DHT22;7666;50.920;4.628;2024-01-27T02:57:56;3.30;99.90
15131;DHT22;7666;50.920;4.628;2024-01-27T03:00:42;3.20;99.90
15131;DHT22;7666;50.920;4.628;2024-01-27T03:03:29;3.10;99.90
15131;DHT22;7666;50.920;4.628;2024-01-27T03:06:14;3.10;99.90
15131;DHT22;7666;50.920;4.628;2024-01-27T03:09:00;3.10;99.90
15131;DHT22;7666;50.920;4.628;2024-01-27T03:11:46;3.10;99.90
15131;DHT22;7666;50.920;4.628;2024-01-27T03:14:32;3.10;99.90
15131;DHT22;7666;50.920;4.628;2024-01-27T03:17:18;3.10;99.90
15131;DHT22;7666;50.920;4.628;2024-01-27T03:20:05;3.10;99.90
15131;DHT22;7666;50.920;4.628;2024-01-27T03:22:54;3.10;99.90
15131;DHT22;7666;50.920;4.628;2024-01-27T03:25:40;2.90;99.90
15131;DHT22;7666;50.920;4.628;2024-01-27T03:28:26;2.90;99.90
15131;DHT22;7666;50.920;4.628;2024-01-27T03:31:12;2.80;99.90
15131;DHT22;7666;50.920;4.628;2024-01-27T03:33:58;2.70;99.90
15131;DHT22;7666;50.920;4.628;2024-01-27T03:36:48;2.50;99.90
15131;DHT22;7666;50.920;4.628;2024-01-27T03:39:34;2.40;99.90
15131;DHT22;7666;50.920;4.628;2024-01-27T03:42:20;2.30;99.90
15131;DHT22;7666;50.920;4.628;2024-01-27T03:45:06;2.00;99.90
15131;DHT22;7666;50.920;4.628;2024-01-27T03:47:52;1.90;99.90
15131;DHT22;7666;50.920;4.628;2024-01-27T03:50:38;1.80;99.90
15131;DHT22;7666;50.920;4.628;2024-01-27T03:53:24;1.80;99.90
15131;DHT22;7666;50.920;4.628;2024-01-27T03:56:13;1.70;99.90
15131;DHT22;7666;50.920;4.628;2024-01-27T03:58:59;1.80;99.90
15131;DHT22;7666;50.920;4.628;2024-01-27T04:01:45;1.80;99.90
15131;DHT22;7666;50.920;4.628;2024-01-27T04:04:31;1.70;99.90
15131;DHT22;7666;50.920;4.628;2024-01-27T04:07:17;1.60;99.90
15131;DHT22;7666;50.920;4.628;2024-01-27T04:10:03;1.50;99.90
15131;DHT22;7666;50.920;4.628;2024-01-27T04:12:50;1.50;99.90
15131;DHT22;7666;50.920;4.628;2024-01-27T04:15:36;1.60;99.90
15131;DHT22;7666;50.920;4.628;2024-01-27T04:18:25;1.70;99.90
15131;DHT22;7666;50.920;4.628;2024-01-27T04:21:11;1.70;99.90
15131;DHT22;7666;50.920;4.628;2024-01-27T04:23:57;1.80;99.90
15131;DHT22;7666;50.920;4.628;2024-01-27T04:26:43;1.70;99.90
15131;DHT22;7666;50.920;4.628;2024-01-27T04:29:29;1.50;99.90
15131;DHT22;7666;50.920;4.628;2024-01-27T04:32:15;1.50;99.90
15131;DHT22;7666;50.920;4.628;2024-01-27T04:35:01;1.50;99.90
15131;DHT22;7666;50.920;4.628;2024-01-27T04:37:47;1.60;99.90
15131;DHT22;7666;50.920;4.628;2024-01-27T04:40:33;1.60;99.90
15131;DHT22;7666;50.920;4.628;2024-01-27T04:43:21;1.70;99.90
15131;DHT22;7666;50.920;4.628;2024-01-27T04:46:06;1.60;99.90
15131;DHT22;7666;50.920;4.628;2024-01-27T04:48:53;1.70;99.90
15131;DHT22;7666;50.920;4.628;2024-01-27T04:51:39;1.60;99.90
15131;DHT22;7666;50.920;4.628;2024-01-27T04:54:25;1.60;99.90
15131;DHT22;7666;50.920;4.628;2024-01-27T04:57:11;1.60;99.90
15131;DHT22;7666;50.920;4.628;2024-01-27T04:59:57;1.60;99.90
15131;DHT22;7666;50.920;4.628;2024-01-27T05:02:43;1.50;99.90
15131;DHT22;7666;50.920;4.628;2024-01-27T05:05:29;1.40;99.90
15131;DHT22;7666;50.920;4.628;2024-01-27T05:08:15;1.40;99.90
15131;DHT22;7666;50.920;4.628;2024-01-27T05:11:01;1.40;99.90
15131;DHT22;7666;50.920;4.628;2024-01-27T05:13:47;1.40;99.90
15131;DHT22;7666;50.920;4.628;2024-01-27T05:16:32;1.50;99.90
15131;DHT22;7666;50.920;4.628;2024-01-27T05:19:21;1.40;99.90
15131;DHT22;7666;50.920;4.628;2024-01-27T05:22:07;1.60;99.90
15131;DHT22;7666;50.920;4.628;2024-01-27T05:24:53;1.70;99.90
15131;DHT22;7666;50.920;4.628;2024-01-27T05:27:39;1.80;99.90
15131;DHT22;7666;50.920;4.628;2024-01-27T05:30:25;1.80;99.90
15131;DHT22;7666;50.920;4.628;2024-01-27T05:33:11;1.80;99.90
15131;DHT22;7666;50.920;4.628;2024-01-27T05:35:57;1.80;99.90
15131;DHT22;7666;50.920;4.628;2024-01-27T05:38:43;1.80;99.90
15131;DHT22;7666;50.920;4.628;2024-01-27T05:41:29;1.60;99.90
15131;DHT22;7666;50.920;4.628;2024-01-27T05:44:14;1.40;99.90
15131;DHT22;7666;50.920;4.628;2024-01-27T05:47:00;1.40;99.90
15131;DHT22;7666;50.920;4.628;2024-01-27T05:49:46;1.40;99.90
15131;DHT22;7666;50.920;4.628;2024-01-27T05:52:32;1.40;99.90
15131;DHT22;7666;50.920;4.628;2024-01-27T05:55:18;1.40;99.90
15131;DHT22;7666;50.920;4.628;2024-01-27T05:58:04;1.40;99.90
15131;DHT22;7666;50.920;4.628;2024-01-27T06:00:50;1.40;99.90
15131;DHT22;7666;50.920;4.628;2024-01-27T06:03:36;1.40;99.90
15131;DHT22;7666;50.920;4.628;2024-01-27T06:06:22;1.30;99.90
15131;DHT22;7666;50.920;4.628;2024-01-27T06:09:08;1.00;99.90
15131;DHT22;7666;50.920;4.628;2024-01-27T06:12:00;1.00;99.90
15131;DHT22;7666;50.920;4.628;2024-01-27T06:14:46;1.00;99.90
15131;DHT22;7666;50.920;4.628;2024-01-27T06:17:32;1.00;99.90
15131;DHT22;7666;50.920;4.628;2024-01-27T06:20:18;1.30;99.90
15131;DHT22;7666;50.920;4.628;2024-01-27T06:23:04;1.40;99.90
15131;DHT22;7666;50.920;4.628;2024-01-27T06:25:50;1.50;99.90
15131;DHT22;7666;50.920;4.628;2024-01-27T06:28:36;1.50;99.90
15131;DHT22;7666;50.920;4.628;2024-01-27T06:31:22;1.40;99.90
15131;DHT22;7666;50.920;4.628;2024-01-27T06:34:08;1.40;99.90
15131;DHT22;7666;50.920;4.628;2024-01-27T06:36:54;1.70;99.90
15131;DHT22;7666;50.920;4.628;2024-01-27T06:39:40;1.50;99.90
15131;DHT22;7666;50.920;4.628;2024-01-27T06:42:26;1.50;99.90
15131;DHT22;7666;50.920;4.628;2024-01-27T06:45:12;1.50;99.90
15131;DHT22;7666;50.920;4.628;2024-01-27T06:47:58;1.50;99.90
15131;DHT22;7666;50.920;4.628;2024-01-27T06:50:44;1.50;99.90
15131;DHT22;7666;50.920;4.628;2024-01-27T06:53:30;1.50;99.90
15131;DHT22;7666;50.920;4.628;2024-01-27T06:56:16;1.60;99.90
15131;DHT22;7666;50.920;4.628;2024-01-27T06:59:02;1.60;99.90
15131;DHT22;7666;50.920;4.628;2024-01-27T07:01:48;1.60;99.90
15131;DHT22;7666;50.920;4.628;2024-01-27T07:04:34;1.60;99.90
15131;DHT22;7666;50.920;4.628;2024-01-27T07:07:26;1.50;99.90
15131;DHT22;7666;50.920;4.628;2024-01-27T07:10:12;1.40;99.90
15131;DHT22;7666;50.920;4.628;2024-01-27T07:12:58;1.20;99.90
15131;DHT22;7666;50.920;4.628;2024-01-27T07:15:44;0.90;99.90
15131;DHT22;7666;50.920;4.628;2024-01-27T07:18:30;0.80;99.90
15131;DHT22;7666;50.920;4.628;2024-01-27T07:21:17;0.80;99.90
15131;DHT22;7666;50.920;4.628;2024-01-27T07:24:03;0.90;99.90
15131;DHT22;7666;50.920;4.628;2024-01-27T07:26:49;1.00;99.90
15131;DHT22;7666;50.920;4.628;2024-01-27T07:29:35;1.20;99.90
15131;DHT22;7666;50.920;4.628;2024-01-27T07:32:21;1.20;99.90
15131;DHT22;7666;50.920;4.628;2024-01-27T07:35:08;1.30;99.90
15131;DHT22;7666;50.920;4.628;2024-01-27T07:37:54;1.40;99.90
15131;DHT22;7666;50.920;4.628;2024-01-27T07:40:40;1.50;99.90
15131;DHT22;7666;50.920;4.628;2024-01-27T07:43:26;1.50;99.90
15131;DHT22;7666;50.920;4.628;2024-01-27T07:46:12;1.50;99.90
15131;DHT22;7666;50.920;4.628;2024-01-27T07:48:58;1.70;99.90
15131;DHT22;7666;50.920;4.628;2024-01-27T07:51:44;1.90;99.90
15131;DHT22;7666;50.920;4.628;2024-01-27T07:54:30;2.20;99.90
15131;DHT22;7666;50.920;4.628;2024-01-27T07:57:17;2.60;99.90
15131;DHT22;7666;50.920;4.628;2024-01-27T08:00:03;2.90;99.90
15131;DHT22;7666;50.920;4.628;2024-01-27T08:02:52;3.60;99.90
15131;DHT22;7666;50.920;4.628;2024-01-27T08:05:38;4.30;99.90
15131;DHT22;7666;50.920;4.628;2024-01-27T08:08:23;4.90;99.90
15131;DHT22;7666;50.920;4.628;2024-01-27T08:11:10;5.30;99.90
15131;DHT22;7666;50.920;4.628;2024-01-27T08:13:56;5.70;99.90
15131;DHT22;7666;50.920;4.628;2024-01-27T08:16:42;6.20;99.90
15131;DHT22;7666;50.920;4.628;2024-01-27T08:19:29;6.70;99.90
15131;DHT22;7666;50.920;4.628;2024-01-27T08:22:15;7.10;99.90
15131;DHT22;7666;50.920;4.628;2024-01-27T08:25:01;6.90;99.90
15131;DHT22;7666;50.920;4.628;2024-01-27T08:27:46;6.30;99.90
15131;DHT22;7666;50.920;4.628;2024-01-27T08:30:32;5.50;99.90
15131;DHT22;7666;50.920;4.628;2024-01-27T08:33:18;5.10;99.90
15131;DHT22;7666;50.920;4.628;2024-01-27T08:36:05;4.80;99.90
15131;DHT22;7666;50.920;4.628;2024-01-27T08:38:50;4.60;99.90
15131;DHT22;7666;50.920;4.628;2024-01-27T08:41:36;4.50;99.90
15131;DHT22;7666;50.920;4.628;2024-01-27T08:44:22;4.60;99.90
15131;DHT22;7666;50.920;4.628;2024-01-27T08:47:09;4.70;99.90
15131;DHT22;7666;50.920;4.628;2024-01-27T08:49:54;4.80;99.90
15131;DHT22;7666;50.920;4.628;2024-01-27T08:52:40;4.80;99.90
15131;DHT22;7666;50.920;4.628;2024-01-27T08:55:26;4.80;99.90
15131;DHT22;7666;50.920;4.628;2024-01-27T08:58:12;4.70;99.90
15131;DHT22;7666;50.920;4.628;2024-01-27T09:00:58;4.70;99.90
15131;DHT22;7666;50.920;4.628;2024-01-27T09:03:47;4.70;99.90
15131;DHT22;7666;50.920;4.628;2024-01-27T09:06:33;4.70;99.90
15131;DHT22;7666;50.920;4.628;2024-01-27T09:09:19;4.80;99.90
15131;DHT22;7666;50.920;4.628;2024-01-27T09:12:05;4.80;99.90
15131;DHT22;7666;50.920;4.628;2024-01-27T09:14:51;4.80;99.90
15131;DHT22;7666;50.920;4.628;2024-01-27T09:17:39;4.90;99.90
15131;DHT22;7666;50.920;4.628;2024-01-27T09:20:25;4.90;99.90
15131;DHT22;7666;50.920;4.628;2024-01-27T09:23:11;5.00;99.90
15131;DHT22;7666;50.920;4.628;2024-01-27T09:25:57;5.20;99.90
15131;DHT22;7666;50.920;4.628;2024-01-27T09:28:44;5.20;99.90
15131;DHT22;7666;50.920;4.628;2024-01-27T09:31:31;5.40;99.90
15131;DHT22;7666;50.920;4.628;2024-01-27T09:34:17;5.40;99.90
15131;DHT22;7666;50.920;4.628;2024-01-27T09:37:03;5.50;99.90
15131;DHT22;7666;50.920;4.628;2024-01-27T09:39:50;5.50;99.90
15131;DHT22;7666;50.920;4.628;2024-01-27T09:42:38;5.60;99.90
15131;DHT22;7666;50.920;4.628;2024-01-27T09:45:25;5.60;99.90
15131;DHT22;7666;50.920;4.628;2024-01-27T09:48:12;5.70;99.90
15131;DHT22;7666;50.920;4.628;2024-01-27T09:50:58;5.90;99.90
15131;DHT22;7666;50.920;4.628;2024-01-27T09:53:45;6.00;99.90
15131;DHT22;7666;50.920;4.628;2024-01-27T09:56:31;6.10;99.90
15131;DHT22;7666;50.920;4.628;2024-01-27T09:59:19;6.20;99.90
15131;DHT22;7666;50.920;4.628;2024-01-27T10:02:06;6.30;99.90
15131;DHT22;7666;50.920;4.628;2024-01-27T10:04:54;6.30;99.90
15131;DHT22;7666;50.920;4.628;2024-01-27T10:07:40;6.40;99.90
15131;DHT22;7666;50.920;4.628;2024-01-27T10:10:27;6.50;99.90
15131;DHT22;7666;50.920;4.628;2024-01-27T10:13:14;6.60;99.90
15131;DHT22;7666;50.920;4.628;2024-01-27T10:16:04;6.60;99.90
15131;DHT22;7666;50.920;4.628;2024-01-27T10:19:02;6.70;99.90
15131;DHT22;7666;50.920;4.628;2024-01-27T10:21:48;6.80;99.90
15131;DHT22;7666;50.920;4.628;2024-01-27T10:24:34;6.80;99.90
15131;DHT22;7666;50.920;4.628;2024-01-27T10:27:21;6.80;99.90
15131;DHT22;7666;50.920;4.628;2024-01-27T10:30:15;6.90;99.90
15131;DHT22;7666;50.920;4.628;2024-01-27T10:33:02;7.00;99.90
15131;DHT22;7666;50.920;4.628;2024-01-27T10:35:57;7.10;99.90
15131;DHT22;7666;50.920;4.628;2024-01-27T10:38:44;7.30;99.90
15131;DHT22;7666;50.920;4.628;2024-01-27T10:41:30;7.30;99.90
15131;DHT22;7666;50.920;4.628;2024-01-27T10:44:18;7.30;99.90
15131;DHT22;7666;50.920;4.628;2024-01-27T10:47:05;7.40;99.90
15131;DHT22;7666;50.920;4.628;2024-01-27T10:49:55;7.50;99.90
15131;DHT22;7666;50.920;4.628;2024-01-27T10:52:44;7.50;99.90
15131;DHT22;7666;50.920;4.628;2024-01-27T10:55:33;7.40;99.90
15131;DHT22;7666;50.920;4.628;2024-01-27T10:58:22;7.30;99.90
15131;DHT22;7666;50.920;4.628;2024-01-27T11:01:11;7.30;99.90
15131;DHT22;7666;50.920;4.628;2024-01-27T11:03:59;7.50;99.90
15131;DHT22;7666;50.920;4.628;2024-01-27T11:06:48;7.70;99.90
15131;DHT22;7666;50.920;4.628;2024-01-27T11:09:35;7.70;99.90
15131;DHT22;7666;50.920;4.628;2024-01-27T11:12:22;7.70;99.90
15131;DHT22;7666;50.920;4.628;2024-01-27T11:15:08;7.60;99.90
15131;DHT22;7666;50.920;4.628;2024-01-27T11:17:58;7.60;99.90
15131;DHT22;7666;50.920;4.628;2024-01-27T11:20:45;7.70;99.90
15131;DHT22;7666;50.920;4.628;2024-01-27T11:23:35;7.90;99.90
15131;DHT22;7666;50.920;4.628;2024-01-27T11:26:24;8.10;99.90
15131;DHT22;7666;50.920;4.628;2024-01-27T11:29:11;8.30;99.90
15131;DHT22;7666;50.920;4.628;2024-01-27T11:32:06;8.40;99.90
15131;DHT22;7666;50.920;4.628;2024-01-27T11:34:52;8.50;99.90
15131;DHT22;7666;50.920;4.628;2024-01-27T11:37:38;8.60;99.90
15131;DHT22;7666;50.920;4.628;2024-01-27T11:40:24;8.70;99.90
15131;DHT22;7666;50.920;4.628;2024-01-27T11:43:12;8.80;99.90
15131;DHT22;7666;50.920;4.628;2024-01-27T11:46:01;8.90;99.90
15131;DHT22;7666;50.920;4.628;2024-01-27T11:48:47;8.90;99.90
15131;DHT22;7666;50.920;4.628;2024-01-27T11:51:33;8.90;99.90
15131;DHT22;7666;50.920;4.628;2024-01-27T11:54:18;8.90;99.90
15131;DHT22;7666;50.920;4.628;2024-01-27T11:57:04;8.90;99.90
15131;DHT22;7666;50.920;4.628;2024-01-27T11:59:52;8.80;99.90
15131;DHT22;7666;50.920;4.628;2024-01-27T12:02:38;8.70;99.90
15131;DHT22;7666;50.920;4.628;2024-01-27T12:05:24;8.60;99.90
15131;DHT22;7666;50.920;4.628;2024-01-27T12:08:11;8.50;99.90
15131;DHT22;7666;50.920;4.628;2024-01-27T12:10:57;8.50;99.90
15131;DHT22;7666;50.920;4.628;2024-01-27T12:13:43;8.40;99.90
15131;DHT22;7666;50.920;4.628;2024-01-27T12:16:29;8.40;99.90
15131;DHT22;7666;50.920;4.628;2024-01-27T12:19:15;8.40;99.90
15131;DHT22;7666;50.920;4.628;2024-01-27T12:22:02;8.40;99.90
15131;DHT22;7666;50.920;4.628;2024-01-27T12:24:48;8.50;99.90
15131;DHT22;7666;50.920;4.628;2024-01-27T12:27:34;8.50;99.90
15131;DHT22;7666;50.920;4.628;2024-01-27T12:30:21;8.60;99.90
15131;DHT22;7666;50.920;4.628;2024-01-27T12:33:12;8.70;99.90
15131;DHT22;7666;50.920;4.628;2024-01-27T12:35:58;8.80;99.90
15131;DHT22;7666;50.920;4.628;2024-01-27T12:38:47;8.80;99.90
15131;DHT22;7666;50.920;4.628;2024-01-27T12:41:33;8.80;99.90
15131;DHT22;7666;50.920;4.628;2024-01-27T12:44:19;8.80;99.90
15131;DHT22;7666;50.920;4.628;2024-01-27T12:47:05;8.90;99.90
15131;DHT22;7666;50.920;4.628;2024-01-27T12:49:51;9.00;99.90
15131;DHT22;7666;50.920;4.628;2024-01-27T12:52:37;9.00;99.90
15131;DHT22;7666;50.920;4.628;2024-01-27T12:55:23;8.90;99.90
15131;DHT22;7666;50.920;4.628;2024-01-27T12:58:09;8.80;99.90
15131;DHT22;7666;50.920;4.628;2024-01-27T13:00:55;8.80;99.90
15131;DHT22;7666;50.920;4.628;2024-01-27T13:03:41;8.80;99.90
15131;DHT22;7666;50.920;4.628;2024-01-27T13:06:27;8.90;99.90
15131;DHT22;7666;50.920;4.628;2024-01-27T13:09:13;9.00;99.90
15131;DHT22;7666;50.920;4.628;2024-01-27T13:11:59;9.00;99.90
15131;DHT22;7666;50.920;4.628;2024-01-27T13:14:45;9.20;99.90
15131;DHT22;7666;50.920;4.628;2024-01-27T13:17:32;9.30;99.90
15131;DHT22;7666;50.920;4.628;2024-01-27T13:20:18;9.20;99.90
15131;DHT22;7666;50.920;4.628;2024-01-27T13:23:04;9.30;99.90
15131;DHT22;7666;50.920;4.628;2024-01-27T13:25:50;9.30;99.90
15131;DHT22;7666;50.920;4.628;2024-01-27T13:28:36;9.40;99.90
15131;DHT22;7666;50.920;4.628;2024-01-27T13:31:22;9.40;99.90
15131;DHT22;7666;50.920;4.628;2024-01-27T13:34:08;9.50;99.90
15131;DHT22;7666;50.920;4.628;2024-01-27T13:36:54;9.50;99.90
15131;DHT22;7666;50.920;4.628;2024-01-27T13:39:40;9.60;99.90
15131;DHT22;7666;50.920;4.628;2024-01-27T13:42:26;9.60;99.90
15131;DHT22;7666;50.920;4.628;2024-01-27T13:45:12;9.60;99.90
15131;DHT22;7666;50.920;4.628;2024-01-27T13:47:58;9.60;99.90
15131;DHT22;7666;50.920;4.628;2024-01-27T13:50:44;9.70;99.90
15131;DHT22;7666;50.920;4.628;2024-01-27T13:53:31;9.70;99.90
15131;DHT22;7666;50.920;4.628;2024-01-27T13:56:17;9.70;99.90
15131;DHT22;7666;50.920;4.628;2024-01-27T13:59:03;9.70;99.90
15131;DHT22;7666;50.920;4.628;2024-01-27T14:01:50;9.60;99.90
15131;DHT22;7666;50.920;4.628;2024-01-27T14:04:36;9.60;99.90
15131;DHT22;7666;50.920;4.628;2024-01-27T14:07:22;9.70;99.90
15131;DHT22;7666;50.920;4.628;2024-01-27T14:10:08;9.80;99.90
15131;DHT22;7666;50.920;4.628;2024-01-27T14:12:54;9.70;99.90
15131;DHT22;7666;50.920;4.628;2024-01-27T14:15:40;9.80;99.90
15131;DHT22;7666;50.920;4.628;2024-01-27T14:18:26;9.90;99.90
15131;DHT22;7666;50.920;4.628;2024-01-27T14:21:12;9.90;99.90
15131;DHT22;7666;50.920;4.628;2024-01-27T14:23:58;10.00;99.90
15131;DHT22;7666;50.920;4.628;2024-01-27T14:26:48;10.00;99.90
15131;DHT22;7666;50.920;4.628;2024-01-27T14:29:35;10.00;99.90
15131;DHT22;7666;50.920;4.628;2024-01-27T14:32:22;10.10;99.90
15131;DHT22;7666;50.920;4.628;2024-01-27T14:35:08;10.10;99.90
15131;DHT22;7666;50.920;4.628;2024-01-27T14:37:54;10.10;99.90
15131;DHT22;7666;50.920;4.628;2024-01-27T14:40:43;10.00;99.90
15131;DHT22;7666;50.920;4.628;2024-01-27T14:43:29;10.00;99.90
15131;DHT22;7666;50.920;4.628;2024-01-27T14:46:15;9.80;99.90
15131;DHT22;7666;50.920;4.628;2024-01-27T14:49:01;9.70;99.90
15131;DHT22;7666;50.920;4.628;2024-01-27T14:51:47;9.60;99.90
15131;DHT22;7666;50.920;4.628;2024-01-27T14:54:34;9.50;99.90
15131;DHT22;7666;50.920;4.628;2024-01-27T14:57:20;9.30;99.90
15131;DHT22;7666;50.920;4.628;2024-01-27T15:00:07;9.20;99.90
15131;DHT22;7666;50.920;4.628;2024-01-27T15:02:53;9.20;99.90
15131;DHT22;7666;50.920;4.628;2024-01-27T15:05:39;9.20;99.90
15131;DHT22;7666;50.920;4.628;2024-01-27T15:08:26;9.20;99.90
15131;DHT22;7666;50.920;4.628;2024-01-27T15:11:12;9.10;99.90
15131;DHT22;7666;50.920;4.628;2024-01-27T15:13:58;9.10;99.90
15131;DHT22;7666;50.920;4.628;2024-01-27T15:16:45;9.00;99.90
15131;DHT22;7666;50.920;4.628;2024-01-27T15:19:31;8.90;99.90
15131;DHT22;7666;50.920;4.628;2024-01-27T15:22:18;8.80;99.90
15131;DHT22;7666;50.920;4.628;2024-01-27T15:25:05;8.70;99.90
15131;DHT22;7666;50.920;4.628;2024-01-27T15:27:51;8.70;99.90
15131;DHT22;7666;50.920;4.628;2024-01-27T15:30:37;8.60;99.90
15131;DHT22;7666;50.920;4.628;2024-01-27T15:33:23;8.50;99.90
15131;DHT22;7666;50.920;4.628;2024-01-27T15:36:09;8.50;99.90
15131;DHT22;7666;50.920;4.628;2024-01-27T15:38:56;8.40;99.90
15131;DHT22;7666;50.920;4.628;2024-01-27T15:41:41;8.30;99.90
15131;DHT22;7666;50.920;4.628;2024-01-27T15:44:27;8.30;99.90
15131;DHT22;7666;50.920;4.628;2024-01-27T15:47:13;8.20;99.90
15131;DHT22;7666;50.920;4.628;2024-01-27T15:49:59;8.20;99.90
15131;DHT22;7666;50.920;4.628;2024-01-27T15:52:49;8.20;99.90
15131;DHT22;7666;50.920;4.628;2024-01-27T15:55:35;8.10;99.90
15131;DHT22;7666;50.920;4.628;2024-01-27T15:58:21;8.00;99.90
15131;DHT22;7666;50.920;4.628;2024-01-27T16:01:07;8.00;99.90
15131;DHT22;7666;50.920;4.628;2024-01-27T16:03:53;7.90;99.90
15131;DHT22;7666;50.920;4.628;2024-01-27T16:06:39;7.90;99.90
15131;DHT22;7666;50.920;4.628;2024-01-27T16:09:25;7.80;99.90
15131;DHT22;7666;50.920;4.628;2024-01-27T16:12:11;7.70;99.90
15131;DHT22;7666;50.920;4.628;2024-01-27T16:14:57;7.70;99.90
15131;DHT22;7666;50.920;4.628;2024-01-27T16:17:43;7.60;99.90
15131;DHT22;7666;50.920;4.628;2024-01-27T16:20:29;7.50;99.90
15131;DHT22;7666;50.920;4.628;2024-01-27T16:23:15;7.40;99.90
15131;DHT22;7666;50.920;4.628;2024-01-27T16:26:01;7.30;99.90
15131;DHT22;7666;50.920;4.628;2024-01-27T16:28:47;7.20;99.90
15131;DHT22;7666;50.920;4.628;2024-01-27T16:31:33;7.10;99.90
15131;DHT22;7666;50.920;4.628;2024-01-27T16:34:19;7.00;99.90
15131;DHT22;7666;50.920;4.628;2024-01-27T16:37:05;6.80;99.90
15131;DHT22;7666;50.920;4.628;2024-01-27T16:39:51;6.60;99.90
15131;DHT22;7666;50.920;4.628;2024-01-27T16:42:37;6.60;99.90
15131;DHT22;7666;50.920;4.628;2024-01-27T16:45:23;6.50;99.90
15131;DHT22;7666;50.920;4.628;2024-01-27T16:48:09;6.40;99.90
15131;DHT22;7666;50.920;4.628;2024-01-27T16:50:55;6.40;99.90
15131;DHT22;7666;50.920;4.628;2024-01-27T16:53:42;6.40;99.90
15131;DHT22;7666;50.920;4.628;2024-01-27T16:56:28;6.40;99.90
15131;DHT22;7666;50.920;4.628;2024-01-27T16:59:16;6.40;99.90
15131;DHT22;7666;50.920;4.628;2024-01-27T17:02:02;6.40;99.90
15131;DHT22;7666;50.920;4.628;2024-01-27T17:04:48;6.40;99.90
15131;DHT22;7666;50.920;4.628;2024-01-27T17:07:35;6.40;99.90
15131;DHT22;7666;50.920;4.628;2024-01-27T17:10:21;6.30;99.90
15131;DHT22;7666;50.920;4.628;2024-01-27T17:13:07;6.30;99.90
15131;DHT22;7666;50.920;4.628;2024-01-27T17:15:53;6.30;99.90
15131;DHT22;7666;50.920;4.628;2024-01-27T17:18:39;6.30;99.90
15131;DHT22;7666;50.920;4.628;2024-01-27T17:21:25;6.20;99.90
15131;DHT22;7666;50.920;4.628;2024-01-27T17:24:11;6.20;99.90
15131;DHT22;7666;50.920;4.628;2024-01-27T17:26:57;6.10;99.90
15131;DHT22;7666;50.920;4.628;2024-01-27T17:29:46;6.10;99.90
15131;DHT22;7666;50.920;4.628;2024-01-27T17:32:32;6.00;99.90
15131;DHT22;7666;50.920;4.628;2024-01-27T17:35:18;6.00;99.90
15131;DHT22;7666;50.920;4.628;2024-01-27T17:38:04;5.90;99.90
15131;DHT22;7666;50.920;4.628;2024-01-27T17:40:51;5.60;99.90
15131;DHT22;7666;50.920;4.628;2024-01-27T17:43:37;5.50;99.90
15131;DHT22;7666;50.920;4.628;2024-01-27T17:46:23;5.50;99.90
15131;DHT22;7666;50.920;4.628;2024-01-27T17:49:09;5.50;99.90
15131;DHT22;7666;50.920;4.628;2024-01-27T17:51:55;5.50;99.90
15131;DHT22;7666;50.920;4.628;2024-01-27T17:54:41;5.40;99.90
15131;DHT22;7666;50.920;4.628;2024-01-27T17:57:28;5.20;99.90
15131;DHT22;7666;50.920;4.628;2024-01-27T18:00:15;5.00;99.90
15131;DHT22;7666;50.920;4.628;2024-01-27T18:03:02;5.00;99.90
15131;DHT22;7666;50.920;4.628;2024-01-27T18:05:48;5.00;99.90